Upland, Nebraska
Current Conditions -  °F | °C
As of 1:55 AM on Friday 24 Oct 2014 (Local Time) from KHDE Reporting Station
Clear Clear  
Wind Chill: 55°   Ceiling: Unl
Heat Index: 55°   Visibility: 7mi
Dew Point: 54°   Wind: 10mph
Humidity: 94%   Direction: 210°SSW
Pressure: 30"   Gusts: NA
Location:  40.32°N, 98.9°W
Report Text: KHDE 240655Z AUTO 21009KT 7SM CLR 13/12 A3000 RMK AO2 T01300120
Loading
Personal Weather Stations






























Interactive Weather Map
Tropical Storm Tracking
New forecast layout! Learn more

10-Day Weather Forecast

Advertisements
Track Severe Weather on mobile